sensor_id;sensor_type;location;lat;lon;timestamp;P1;durP1;ratioP1;P2;durP2;ratioP2
10090;SDS011;5084;51.386;6.778;2023-03-20T00:00:51;8.77;;;7.87;;
10090;SDS011;5084;51.386;6.778;2023-03-20T00:03:17;8.20;;;6.93;;
10090;SDS011;5084;51.386;6.778;2023-03-20T00:05:43;8.30;;;7.33;;
10090;SDS011;5084;51.386;6.778;2023-03-20T00:08:09;8.20;;;7.40;;
10090;SDS011;5084;51.386;6.778;2023-03-20T00:10:40;8.33;;;7.47;;
10090;SDS011;5084;51.386;6.778;2023-03-20T00:13:09;7.90;;;7.10;;
10090;SDS011;5084;51.386;6.778;2023-03-20T00:15:38;8.23;;;7.37;;
10090;SDS011;5084;51.386;6.778;2023-03-20T00:18:13;8.27;;;6.87;;
10090;SDS011;5084;51.386;6.778;2023-03-20T00:20:40;7.53;;;6.63;;
10090;SDS011;5084;51.386;6.778;2023-03-20T00:23:06;8.07;;;7.27;;
10090;SDS011;5084;51.386;6.778;2023-03-20T00:25:32;8.77;;;6.37;;
10090;SDS011;5084;51.386;6.778;2023-03-20T00:28:00;7.70;;;6.90;;
10090;SDS011;5084;51.386;6.778;2023-03-20T00:30:29;7.03;;;6.33;;
10090;SDS011;5084;51.386;6.778;2023-03-20T00:32:56;8.10;;;7.07;;
10090;SDS011;5084;51.386;6.778;2023-03-20T00:35:27;7.60;;;6.20;;
10090;SDS011;5084;51.386;6.778;2023-03-20T00:37:53;7.57;;;6.53;;
10090;SDS011;5084;51.386;6.778;2023-03-20T00:40:19;7.73;;;6.93;;
10090;SDS011;5084;51.386;6.778;2023-03-20T00:42:49;7.27;;;6.57;;
10090;SDS011;5084;51.386;6.778;2023-03-20T00:45:19;7.70;;;6.30;;
10090;SDS011;5084;51.386;6.778;2023-03-20T00:47:48;7.47;;;6.47;;
10090;SDS011;5084;51.386;6.778;2023-03-20T00:50:36;8.60;;;6.70;;
10090;SDS011;5084;51.386;6.778;2023-03-20T00:53:01;8.57;;;6.60;;
10090;SDS011;5084;51.386;6.778;2023-03-20T00:55:27;7.87;;;7.07;;
10090;SDS011;5084;51.386;6.778;2023-03-20T00:57:55;7.13;;;6.00;;
10090;SDS011;5084;51.386;6.778;2023-03-20T01:00:23;8.63;;;7.73;;
10090;SDS011;5084;51.386;6.778;2023-03-20T01:02:50;8.87;;;6.47;;
10090;SDS011;5084;51.386;6.778;2023-03-20T01:05:17;7.67;;;6.60;;
10090;SDS011;5084;51.386;6.778;2023-03-20T01:07:44;8.23;;;7.20;;
10090;SDS011;5084;51.386;6.778;2023-03-20T01:10:10;7.43;;;6.70;;
10090;SDS011;5084;51.386;6.778;2023-03-20T01:12:40;6.97;;;6.27;;
10090;SDS011;5084;51.386;6.778;2023-03-20T01:15:22;8.37;;;6.23;;
10090;SDS011;5084;51.386;6.778;2023-03-20T01:17:49;8.83;;;6.53;;
10090;SDS011;5084;51.386;6.778;2023-03-20T01:20:20;6.63;;;5.40;;
10090;SDS011;5084;51.386;6.778;2023-03-20T01:22:47;7.17;;;6.40;;
10090;SDS011;5084;51.386;6.778;2023-03-20T01:25:13;8.17;;;6.93;;
10090;SDS011;5084;51.386;6.778;2023-03-20T01:27:40;7.30;;;6.57;;
10090;SDS011;5084;51.386;6.778;2023-03-20T01:30:25;7.00;;;6.30;;
10090;SDS011;5084;51.386;6.778;2023-03-20T01:32:51;8.43;;;6.57;;
10090;SDS011;5084;51.386;6.778;2023-03-20T01:35:19;9.40;;;7.00;;
10090;SDS011;5084;51.386;6.778;2023-03-20T01:37:45;7.10;;;6.40;;
10090;SDS011;5084;51.386;6.778;2023-03-20T01:40:25;7.40;;;6.60;;
10090;SDS011;5084;51.386;6.778;2023-03-20T01:42:52;6.83;;;6.00;;
10090;SDS011;5084;51.386;6.778;2023-03-20T01:45:20;7.13;;;6.43;;
10090;SDS011;5084;51.386;6.778;2023-03-20T01:47:47;9.77;;;7.50;;
10090;SDS011;5084;51.386;6.778;2023-03-20T01:52:52;6.73;;;6.03;;
10090;SDS011;5084;51.386;6.778;2023-03-20T01:55:19;7.03;;;6.33;;
10090;SDS011;5084;51.386;6.778;2023-03-20T01:57:46;7.17;;;6.47;;
10090;SDS011;5084;51.386;6.778;2023-03-20T02:00:12;6.33;;;5.73;;
10090;SDS011;5084;51.386;6.778;2023-03-20T02:02:40;7.27;;;6.47;;
10090;SDS011;5084;51.386;6.778;2023-03-20T02:05:08;7.23;;;6.53;;
10090;SDS011;5084;51.386;6.778;2023-03-20T02:07:34;6.40;;;5.80;;
10090;SDS011;5084;51.386;6.778;2023-03-20T02:10:02;6.90;;;5.87;;
10090;SDS011;5084;51.386;6.778;2023-03-20T02:12:29;7.77;;;6.53;;
10090;SDS011;5084;51.386;6.778;2023-03-20T02:14:55;7.87;;;6.20;;
10090;SDS011;5084;51.386;6.778;2023-03-20T02:17:22;6.27;;;5.67;;
10090;SDS011;5084;51.386;6.778;2023-03-20T02:24:48;6.40;;;5.77;;
10090;SDS011;5084;51.386;6.778;2023-03-20T02:35:10;7.47;;;5.93;;
10090;SDS011;5084;51.386;6.778;2023-03-20T02:43:18;6.43;;;5.83;;
10090;SDS011;5084;51.386;6.778;2023-03-20T02:45:51;6.83;;;6.13;;
10090;SDS011;5084;51.386;6.778;2023-03-20T02:50:58;6.97;;;5.87;;
10090;SDS011;5084;51.386;6.778;2023-03-20T02:56:10;6.73;;;6.10;;
10090;SDS011;5084;51.386;6.778;2023-03-20T03:03:43;6.67;;;6.00;;
10090;SDS011;5084;51.386;6.778;2023-03-20T03:08:51;6.77;;;5.80;;
10090;SDS011;5084;51.386;6.778;2023-03-20T03:11:19;9.17;;;5.77;;
10090;SDS011;5084;51.386;6.778;2023-03-20T03:13:46;7.07;;;6.27;;
10090;SDS011;5084;51.386;6.778;2023-03-20T03:16:18;7.90;;;6.53;;
10090;SDS011;5084;51.386;6.778;2023-03-20T03:18:45;8.53;;;7.43;;
10090;SDS011;5084;51.386;6.778;2023-03-20T03:21:11;7.47;;;6.33;;
10090;SDS011;5084;51.386;6.778;2023-03-20T03:23:41;6.80;;;6.10;;
10090;SDS011;5084;51.386;6.778;2023-03-20T03:26:09;8.23;;;6.77;;
10090;SDS011;5084;51.386;6.778;2023-03-20T03:28:42;8.50;;;6.73;;
10090;SDS011;5084;51.386;6.778;2023-03-20T03:31:14;7.47;;;6.70;;
10090;SDS011;5084;51.386;6.778;2023-03-20T03:33:42;8.63;;;7.43;;
10090;SDS011;5084;51.386;6.778;2023-03-20T03:46:35;8.30;;;6.93;;
10090;SDS011;5084;51.386;6.778;2023-03-20T03:49:03;7.53;;;6.73;;
10090;SDS011;5084;51.386;6.778;2023-03-20T03:51:30;7.40;;;6.07;;
10090;SDS011;5084;51.386;6.778;2023-03-20T03:54:06;7.80;;;6.30;;
10090;SDS011;5084;51.386;6.778;2023-03-20T03:56:33;8.47;;;7.53;;
10090;SDS011;5084;51.386;6.778;2023-03-20T03:59:02;8.27;;;6.80;;
10090;SDS011;5084;51.386;6.778;2023-03-20T04:01:29;9.53;;;7.20;;
10090;SDS011;5084;51.386;6.778;2023-03-20T04:03:59;10.13;;;6.47;;
10090;SDS011;5084;51.386;6.778;2023-03-20T04:06:26;9.10;;;7.53;;
10090;SDS011;5084;51.386;6.778;2023-03-20T04:08:52;8.67;;;7.63;;
10090;SDS011;5084;51.386;6.778;2023-03-20T04:11:20;9.97;;;6.40;;
10090;SDS011;5084;51.386;6.778;2023-03-20T04:13:47;9.30;;;7.53;;
10090;SDS011;5084;51.386;6.778;2023-03-20T04:16:14;8.43;;;7.20;;
10090;SDS011;5084;51.386;6.778;2023-03-20T04:18:40;10.97;;;8.23;;
10090;SDS011;5084;51.386;6.778;2023-03-20T04:21:07;8.17;;;7.37;;
10090;SDS011;5084;51.386;6.778;2023-03-20T04:23:33;9.00;;;7.80;;
10090;SDS011;5084;51.386;6.778;2023-03-20T04:25:59;10.90;;;8.77;;
10090;SDS011;5084;51.386;6.778;2023-03-20T04:28:26;9.97;;;8.27;;
10090;SDS011;5084;51.386;6.778;2023-03-20T04:30:53;9.83;;;7.80;;
10090;SDS011;5084;51.386;6.778;2023-03-20T04:33:19;10.70;;;9.60;;
10090;SDS011;5084;51.386;6.778;2023-03-20T04:35:45;9.13;;;7.83;;
10090;SDS011;5084;51.386;6.778;2023-03-20T04:38:11;10.90;;;7.53;;
10090;SDS011;5084;51.386;6.778;2023-03-20T04:40:37;9.27;;;7.87;;
10090;SDS011;5084;51.386;6.778;2023-03-20T04:43:03;9.57;;;8.50;;
10090;SDS011;5084;51.386;6.778;2023-03-20T04:45:30;11.03;;;8.33;;
10090;SDS011;5084;51.386;6.778;2023-03-20T04:47:56;9.40;;;7.20;;
10090;SDS011;5084;51.386;6.778;2023-03-20T04:50:22;10.40;;;7.73;;
10090;SDS011;5084;51.386;6.778;2023-03-20T04:52:48;9.57;;;7.63;;
10090;SDS011;5084;51.386;6.778;2023-03-20T04:55:14;8.27;;;7.43;;
10090;SDS011;5084;51.386;6.778;2023-03-20T04:57:40;10.67;;;7.83;;
10090;SDS011;5084;51.386;6.778;2023-03-20T05:00:07;9.43;;;7.23;;
10090;SDS011;5084;51.386;6.778;2023-03-20T05:02:33;16.97;;;7.57;;
10090;SDS011;5084;51.386;6.778;2023-03-20T05:04:59;10.40;;;7.97;;
10090;SDS011;5084;51.386;6.778;2023-03-20T05:07:25;9.63;;;8.03;;
10090;SDS011;5084;51.386;6.778;2023-03-20T05:09:51;10.17;;;8.10;;
10090;SDS011;5084;51.386;6.778;2023-03-20T05:12:17;8.97;;;7.17;;
10090;SDS011;5084;51.386;6.778;2023-03-20T05:14:43;8.63;;;7.70;;
10090;SDS011;5084;51.386;6.778;2023-03-20T05:17:10;9.90;;;7.93;;
10090;SDS011;5084;51.386;6.778;2023-03-20T05:19:36;8.07;;;7.13;;
10090;SDS011;5084;51.386;6.778;2023-03-20T05:22:02;10.47;;;7.50;;
10090;SDS011;5084;51.386;6.778;2023-03-20T05:24:28;9.17;;;7.33;;
10090;SDS011;5084;51.386;6.778;2023-03-20T05:26:55;8.90;;;7.00;;
10090;SDS011;5084;51.386;6.778;2023-03-20T05:29:21;9.17;;;7.53;;
10090;SDS011;5084;51.386;6.778;2023-03-20T05:31:47;8.30;;;6.53;;
10090;SDS011;5084;51.386;6.778;2023-03-20T05:34:13;9.27;;;8.23;;
10090;SDS011;5084;51.386;6.778;2023-03-20T05:36:40;9.93;;;7.70;;
10090;SDS011;5084;51.386;6.778;2023-03-20T05:39:06;9.20;;;7.00;;
10090;SDS011;5084;51.386;6.778;2023-03-20T05:41:32;8.67;;;6.83;;
10090;SDS011;5084;51.386;6.778;2023-03-20T05:43:58;8.67;;;7.07;;
10090;SDS011;5084;51.386;6.778;2023-03-20T05:46:24;8.10;;;7.30;;
10090;SDS011;5084;51.386;6.778;2023-03-20T05:48:50;9.00;;;7.13;;
10090;SDS011;5084;51.386;6.778;2023-03-20T05:51:16;9.57;;;7.87;;
10090;SDS011;5084;51.386;6.778;2023-03-20T05:53:42;10.67;;;7.13;;
10090;SDS011;5084;51.386;6.778;2023-03-20T05:56:08;9.57;;;7.40;;
10090;SDS011;5084;51.386;6.778;2023-03-20T05:58:34;8.97;;;7.53;;
10090;SDS011;5084;51.386;6.778;2023-03-20T06:01:00;8.70;;;6.83;;
10090;SDS011;5084;51.386;6.778;2023-03-20T06:03:27;8.17;;;6.70;;
10090;SDS011;5084;51.386;6.778;2023-03-20T06:05:53;7.70;;;6.60;;
10090;SDS011;5084;51.386;6.778;2023-03-20T06:08:19;8.07;;;6.70;;
10090;SDS011;5084;51.386;6.778;2023-03-20T06:10:45;7.57;;;6.33;;
10090;SDS011;5084;51.386;6.778;2023-03-20T06:13:11;8.97;;;7.57;;
10090;SDS011;5084;51.386;6.778;2023-03-20T06:15:37;7.87;;;6.80;;
10090;SDS011;5084;51.386;6.778;2023-03-20T06:18:03;7.97;;;6.87;;
10090;SDS011;5084;51.386;6.778;2023-03-20T06:20:29;8.47;;;6.33;;
10090;SDS011;5084;51.386;6.778;2023-03-20T06:22:55;8.03;;;6.83;;
10090;SDS011;5084;51.386;6.778;2023-03-20T06:25:21;7.97;;;6.53;;
10090;SDS011;5084;51.386;6.778;2023-03-20T06:27:48;9.17;;;7.37;;
10090;SDS011;5084;51.386;6.778;2023-03-20T06:30:14;8.10;;;6.13;;
10090;SDS011;5084;51.386;6.778;2023-03-20T06:32:40;7.40;;;6.63;;
10090;SDS011;5084;51.386;6.778;2023-03-20T06:35:07;7.40;;;6.50;;
10090;SDS011;5084;51.386;6.778;2023-03-20T06:37:33;7.10;;;5.90;;
10090;SDS011;5084;51.386;6.778;2023-03-20T06:40:00;10.57;;;6.43;;
10090;SDS011;5084;51.386;6.778;2023-03-20T06:42:27;8.77;;;6.37;;
10090;SDS011;5084;51.386;6.778;2023-03-20T06:44:53;8.23;;;6.87;;
10090;SDS011;5084;51.386;6.778;2023-03-20T06:47:20;7.43;;;6.63;;
10090;SDS011;5084;51.386;6.778;2023-03-20T06:49:46;8.80;;;6.67;;
10090;SDS011;5084;51.386;6.778;2023-03-20T06:52:13;9.00;;;6.27;;
10090;SDS011;5084;51.386;6.778;2023-03-20T06:54:40;7.90;;;6.37;;
10090;SDS011;5084;51.386;6.778;2023-03-20T06:57:06;7.93;;;7.13;;
10090;SDS011;5084;51.386;6.778;2023-03-20T06:59:32;7.50;;;5.73;;
10090;SDS011;5084;51.386;6.778;2023-03-20T07:01:58;7.73;;;6.43;;
10090;SDS011;5084;51.386;6.778;2023-03-20T07:04:25;7.13;;;6.13;;
10090;SDS011;5084;51.386;6.778;2023-03-20T07:06:51;7.23;;;6.53;;
10090;SDS011;5084;51.386;6.778;2023-03-20T07:09:17;8.03;;;6.30;;
10090;SDS011;5084;51.386;6.778;2023-03-20T07:11:46;7.77;;;6.20;;
10090;SDS011;5084;51.386;6.778;2023-03-20T07:14:12;7.63;;;6.37;;
10090;SDS011;5084;51.386;6.778;2023-03-20T07:16:38;8.37;;;6.83;;
10090;SDS011;5084;51.386;6.778;2023-03-20T07:19:04;7.40;;;6.30;;
10090;SDS011;5084;51.386;6.778;2023-03-20T07:21:30;7.03;;;6.33;;
10090;SDS011;5084;51.386;6.778;2023-03-20T07:23:57;8.03;;;7.03;;
10090;SDS011;5084;51.386;6.778;2023-03-20T07:26:23;8.00;;;7.03;;
10090;SDS011;5084;51.386;6.778;2023-03-20T07:28:49;6.87;;;5.70;;
10090;SDS011;5084;51.386;6.778;2023-03-20T07:31:19;9.10;;;6.90;;
10090;SDS011;5084;51.386;6.778;2023-03-20T07:33:46;8.20;;;7.33;;
10090;SDS011;5084;51.386;6.778;2023-03-20T07:36:12;7.93;;;6.77;;
10090;SDS011;5084;51.386;6.778;2023-03-20T07:38:38;7.10;;;6.33;;
10090;SDS011;5084;51.386;6.778;2023-03-20T07:41:04;6.57;;;5.83;;
10090;SDS011;5084;51.386;6.778;2023-03-20T07:43:30;7.17;;;6.23;;
10090;SDS011;5084;51.386;6.778;2023-03-20T07:45:57;7.37;;;5.97;;
10090;SDS011;5084;51.386;6.778;2023-03-20T07:48:23;8.77;;;5.70;;
10090;SDS011;5084;51.386;6.778;2023-03-20T07:50:49;8.70;;;6.73;;
10090;SDS011;5084;51.386;6.778;2023-03-20T07:53:15;10.07;;;6.93;;
10090;SDS011;5084;51.386;6.778;2023-03-20T07:55:42;7.37;;;6.40;;
10090;SDS011;5084;51.386;6.778;2023-03-20T07:58:09;8.23;;;6.60;;
10090;SDS011;5084;51.386;6.778;2023-03-20T08:00:35;8.77;;;6.57;;
10090;SDS011;5084;51.386;6.778;2023-03-20T08:03:01;10.37;;;6.80;;
10090;SDS011;5084;51.386;6.778;2023-03-20T08:05:28;7.70;;;6.83;;
10090;SDS011;5084;51.386;6.778;2023-03-20T08:07:54;12.10;;;7.20;;
10090;SDS011;5084;51.386;6.778;2023-03-20T08:10:20;8.13;;;6.87;;
10090;SDS011;5084;51.386;6.778;2023-03-20T08:12:46;8.33;;;6.67;;
10090;SDS011;5084;51.386;6.778;2023-03-20T08:15:12;11.87;;;6.13;;
10090;SDS011;5084;51.386;6.778;2023-03-20T08:17:42;7.00;;;6.20;;
10090;SDS011;5084;51.386;6.778;2023-03-20T08:20:09;10.40;;;6.93;;
10090;SDS011;5084;51.386;6.778;2023-03-20T08:22:35;8.37;;;6.57;;
10090;SDS011;5084;51.386;6.778;2023-03-20T08:25:01;11.40;;;6.90;;
10090;SDS011;5084;51.386;6.778;2023-03-20T08:27:27;8.73;;;6.40;;
10090;SDS011;5084;51.386;6.778;2023-03-20T08:29:53;9.27;;;7.03;;
10090;SDS011;5084;51.386;6.778;2023-03-20T08:32:19;7.60;;;6.60;;
10090;SDS011;5084;51.386;6.778;2023-03-20T08:34:45;9.00;;;6.63;;
10090;SDS011;5084;51.386;6.778;2023-03-20T08:37:12;7.13;;;6.23;;
10090;SDS011;5084;51.386;6.778;2023-03-20T08:39:38;7.27;;;6.23;;
10090;SDS011;5084;51.386;6.778;2023-03-20T08:42:05;8.83;;;6.80;;
10090;SDS011;5084;51.386;6.778;2023-03-20T08:44:31;8.83;;;6.47;;
10090;SDS011;5084;51.386;6.778;2023-03-20T08:46:57;7.40;;;5.43;;
10090;SDS011;5084;51.386;6.778;2023-03-20T08:49:24;8.23;;;5.87;;
10090;SDS011;5084;51.386;6.778;2023-03-20T08:51:50;7.80;;;6.20;;
10090;SDS011;5084;51.386;6.778;2023-03-20T08:54:16;8.90;;;6.43;;
10090;SDS011;5084;51.386;6.778;2023-03-20T08:56:43;9.27;;;6.07;;
10090;SDS011;5084;51.386;6.778;2023-03-20T08:59:10;7.53;;;5.47;;
10090;SDS011;5084;51.386;6.778;2023-03-20T09:01:36;8.10;;;5.60;;
10090;SDS011;5084;51.386;6.778;2023-03-20T09:04:03;7.50;;;5.90;;
10090;SDS011;5084;51.386;6.778;2023-03-20T09:06:29;8.30;;;5.43;;
10090;SDS011;5084;51.386;6.778;2023-03-20T09:08:56;6.77;;;5.07;;
10090;SDS011;5084;51.386;6.778;2023-03-20T09:11:22;6.87;;;4.80;;
10090;SDS011;5084;51.386;6.778;2023-03-20T09:13:48;8.83;;;5.53;;
10090;SDS011;5084;51.386;6.778;2023-03-20T09:16:15;9.07;;;5.07;;
10090;SDS011;5084;51.386;6.778;2023-03-20T09:18:41;7.20;;;4.90;;
10090;SDS011;5084;51.386;6.778;2023-03-20T09:21:07;7.47;;;4.50;;
10090;SDS011;5084;51.386;6.778;2023-03-20T09:23:33;8.70;;;4.50;;
10090;SDS011;5084;51.386;6.778;2023-03-20T09:25:59;7.20;;;4.33;;
10090;SDS011;5084;51.386;6.778;2023-03-20T09:28:25;7.50;;;4.60;;
10090;SDS011;5084;51.386;6.778;2023-03-20T09:30:55;7.47;;;5.13;;
10090;SDS011;5084;51.386;6.778;2023-03-20T09:33:21;6.77;;;4.23;;
10090;SDS011;5084;51.386;6.778;2023-03-20T09:35:47;6.67;;;3.90;;
10090;SDS011;5084;51.386;6.778;2023-03-20T09:38:13;4.77;;;4.00;;
10090;SDS011;5084;51.386;6.778;2023-03-20T09:43:12;7.47;;;4.40;;
10090;SDS011;5084;51.386;6.778;2023-03-20T09:50:45;4.70;;;3.07;;
10090;SDS011;5084;51.386;6.778;2023-03-20T09:53:19;6.80;;;3.60;;
10090;SDS011;5084;51.386;6.778;2023-03-20T09:55:47;4.03;;;3.13;;
10090;SDS011;5084;51.386;6.778;2023-03-20T09:58:17;5.47;;;3.27;;
10090;SDS011;5084;51.386;6.778;2023-03-20T10:00:45;5.77;;;2.87;;
10090;SDS011;5084;51.386;6.778;2023-03-20T10:05:45;5.37;;;3.13;;
10090;SDS011;5084;51.386;6.778;2023-03-20T10:08:13;4.00;;;3.00;;
10090;SDS011;5084;51.386;6.778;2023-03-20T10:15:54;5.37;;;2.73;;
10090;SDS011;5084;51.386;6.778;2023-03-20T10:18:26;3.70;;;2.43;;
10090;SDS011;5084;51.386;6.778;2023-03-20T10:21:02;2.93;;;2.57;;
10090;SDS011;5084;51.386;6.778;2023-03-20T10:25:58;3.10;;;2.70;;
10090;SDS011;5084;51.386;6.778;2023-03-20T10:28:35;4.47;;;2.80;;
10090;SDS011;5084;51.386;6.778;2023-03-20T10:36:14;3.77;;;2.47;;
10090;SDS011;5084;51.386;6.778;2023-03-20T10:38:48;3.63;;;2.60;;
10090;SDS011;5084;51.386;6.778;2023-03-20T10:41:17;3.50;;;3.10;;
10090;SDS011;5084;51.386;6.778;2023-03-20T10:43:45;2.70;;;2.50;;
10090;SDS011;5084;51.386;6.778;2023-03-20T10:46:14;3.80;;;2.93;;
10090;SDS011;5084;51.386;6.778;2023-03-20T10:48:44;4.80;;;3.00;;
10090;SDS011;5084;51.386;6.778;2023-03-20T10:51:16;4.13;;;2.87;;
10090;SDS011;5084;51.386;6.778;2023-03-20T10:53:45;6.17;;;2.73;;
10090;SDS011;5084;51.386;6.778;2023-03-20T10:56:12;4.93;;;2.47;;
10090;SDS011;5084;51.386;6.778;2023-03-20T10:58:41;4.23;;;3.10;;
10090;SDS011;5084;51.386;6.778;2023-03-20T11:01:07;3.17;;;2.80;;
10090;SDS011;5084;51.386;6.778;2023-03-20T11:03:34;5.37;;;3.07;;
10090;SDS011;5084;51.386;6.778;2023-03-20T11:06:11;3.93;;;2.70;;
10090;SDS011;5084;51.386;6.778;2023-03-20T11:08:40;4.40;;;2.40;;
10090;SDS011;5084;51.386;6.778;2023-03-20T11:11:07;3.83;;;2.43;;
10090;SDS011;5084;51.386;6.778;2023-03-20T11:13:34;4.00;;;2.60;;
10090;SDS011;5084;51.386;6.778;2023-03-20T11:18:46;2.97;;;2.07;;
10090;SDS011;5084;51.386;6.778;2023-03-20T11:21:20;3.73;;;2.70;;
10090;SDS011;5084;51.386;6.778;2023-03-20T11:23:47;2.57;;;2.10;;
10090;SDS011;5084;51.386;6.778;2023-03-20T11:26:15;3.07;;;2.37;;
10090;SDS011;5084;51.386;6.778;2023-03-20T11:28:46;4.33;;;2.40;;
10090;SDS011;5084;51.386;6.778;2023-03-20T11:33:42;3.93;;;2.70;;
10090;SDS011;5084;51.386;6.778;2023-03-20T11:36:10;6.27;;;2.83;;
10090;SDS011;5084;51.386;6.778;2023-03-20T11:38:41;3.63;;;2.33;;
10090;SDS011;5084;51.386;6.778;2023-03-20T11:41:24;5.33;;;2.50;;
10090;SDS011;5084;51.386;6.778;2023-03-20T11:43:50;2.87;;;2.20;;
10090;SDS011;5084;51.386;6.778;2023-03-20T11:46:17;4.60;;;2.40;;
10090;SDS011;5084;51.386;6.778;2023-03-20T11:48:45;3.70;;;2.50;;
10090;SDS011;5084;51.386;6.778;2023-03-20T11:51:16;3.40;;;2.50;;
10090;SDS011;5084;51.386;6.778;2023-03-20T11:56:13;5.87;;;2.73;;
10090;SDS011;5084;51.386;6.778;2023-03-20T11:58:57;3.07;;;2.40;;
10090;SDS011;5084;51.386;6.778;2023-03-20T12:01:24;3.30;;;2.33;;
10090;SDS011;5084;51.386;6.778;2023-03-20T12:06:21;3.60;;;2.50;;
10090;SDS011;5084;51.386;6.778;2023-03-20T12:08:49;6.30;;;2.83;;
10090;SDS011;5084;51.386;6.778;2023-03-20T12:11:18;4.30;;;2.67;;
10090;SDS011;5084;51.386;6.778;2023-03-20T12:13:46;5.53;;;2.43;;
10090;SDS011;5084;51.386;6.778;2023-03-20T12:16:14;5.47;;;2.53;;
10090;SDS011;5084;51.386;6.778;2023-03-20T12:18:42;3.97;;;2.37;;
10090;SDS011;5084;51.386;6.778;2023-03-20T12:24:37;6.43;;;2.90;;
10090;SDS011;5084;51.386;6.778;2023-03-20T12:26:50;4.00;;;2.30;;
10090;SDS011;5084;51.386;6.778;2023-03-20T12:29:22;2.73;;;2.33;;
10090;SDS011;5084;51.386;6.778;2023-03-20T12:31:56;4.00;;;2.93;;
10090;SDS011;5084;51.386;6.778;2023-03-20T12:34:28;5.43;;;2.53;;
10090;SDS011;5084;51.386;6.778;2023-03-20T12:36:57;5.70;;;2.93;;
10090;SDS011;5084;51.386;6.778;2023-03-20T12:39:27;3.37;;;2.53;;
10090;SDS011;5084;51.386;6.778;2023-03-20T12:44:56;5.50;;;2.70;;
10090;SDS011;5084;51.386;6.778;2023-03-20T12:55:30;3.00;;;2.60;;
10090;SDS011;5084;51.386;6.778;2023-03-20T13:00:34;4.30;;;2.50;;
10090;SDS011;5084;51.386;6.778;2023-03-20T13:03:18;4.57;;;2.40;;
10090;SDS011;5084;51.386;6.778;2023-03-20T13:13:37;4.30;;;2.43;;
10090;SDS011;5084;51.386;6.778;2023-03-20T13:18:43;3.87;;;2.50;;
10090;SDS011;5084;51.386;6.778;2023-03-20T13:21:12;8.47;;;3.67;;
10090;SDS011;5084;51.386;6.778;2023-03-20T13:23:43;3.23;;;2.33;;
10090;SDS011;5084;51.386;6.778;2023-03-20T13:41:27;3.87;;;2.90;;
10090;SDS011;5084;51.386;6.778;2023-03-20T13:43:57;5.50;;;2.93;;
10090;SDS011;5084;51.386;6.778;2023-03-20T13:48:52;3.00;;;2.50;;
10090;SDS011;5084;51.386;6.778;2023-03-20T13:51:38;3.20;;;2.43;;
10090;SDS011;5084;51.386;6.778;2023-03-20T13:59:10;3.90;;;2.80;;
10090;SDS011;5084;51.386;6.778;2023-03-20T14:01:46;4.03;;;2.93;;
10090;SDS011;5084;51.386;6.778;2023-03-20T14:04:16;5.13;;;2.77;;
10090;SDS011;5084;51.386;6.778;2023-03-20T14:06:55;5.47;;;2.73;;
10090;SDS011;5084;51.386;6.778;2023-03-20T14:09:32;6.17;;;2.80;;
10090;SDS011;5084;51.386;6.778;2023-03-20T14:12:03;2.97;;;2.63;;
10090;SDS011;5084;51.386;6.778;2023-03-20T14:14:30;4.00;;;2.87;;
10090;SDS011;5084;51.386;6.778;2023-03-20T14:17:14;3.13;;;2.40;;
10090;SDS011;5084;51.386;6.778;2023-03-20T14:19:41;4.83;;;2.73;;
10090;SDS011;5084;51.386;6.778;2023-03-20T14:22:13;5.27;;;3.10;;
10090;SDS011;5084;51.386;6.778;2023-03-20T14:24:49;5.30;;;3.40;;
10090;SDS011;5084;51.386;6.778;2023-03-20T14:27:16;4.07;;;3.10;;
10090;SDS011;5084;51.386;6.778;2023-03-20T14:29:43;5.97;;;3.30;;
10090;SDS011;5084;51.386;6.778;2023-03-20T14:34:49;4.47;;;3.13;;
10090;SDS011;5084;51.386;6.778;2023-03-20T14:37:29;3.90;;;2.90;;
10090;SDS011;5084;51.386;6.778;2023-03-20T14:57:50;4.73;;;3.13;;
10090;SDS011;5084;51.386;6.778;2023-03-20T15:00:17;5.30;;;2.53;;
10090;SDS011;5084;51.386;6.778;2023-03-20T15:02:45;8.30;;;3.03;;
10090;SDS011;5084;51.386;6.778;2023-03-20T15:05:26;6.17;;;2.73;;
10090;SDS011;5084;51.386;6.778;2023-03-20T15:07:57;4.70;;;3.13;;
10090;SDS011;5084;51.386;6.778;2023-03-20T15:10:27;4.43;;;2.83;;
10090;SDS011;5084;51.386;6.778;2023-03-20T15:12:54;5.43;;;3.87;;
10090;SDS011;5084;51.386;6.778;2023-03-20T15:15:26;4.80;;;3.43;;
10090;SDS011;5084;51.386;6.778;2023-03-20T15:17:54;12.83;;;3.93;;
10090;SDS011;5084;51.386;6.778;2023-03-20T15:20:21;7.33;;;4.47;;
10090;SDS011;5084;51.386;6.778;2023-03-20T15:22:49;5.27;;;3.33;;
10090;SDS011;5084;51.386;6.778;2023-03-20T15:25:16;6.40;;;3.30;;
10090;SDS011;5084;51.386;6.778;2023-03-20T15:27:43;4.57;;;3.03;;
10090;SDS011;5084;51.386;6.778;2023-03-20T15:30:10;5.17;;;3.53;;
10090;SDS011;5084;51.386;6.778;2023-03-20T15:32:39;6.97;;;3.57;;
10090;SDS011;5084;51.386;6.778;2023-03-20T15:35:09;4.90;;;3.90;;
10090;SDS011;5084;51.386;6.778;2023-03-20T15:37:36;9.27;;;3.13;;
10090;SDS011;5084;51.386;6.778;2023-03-20T15:40:16;6.40;;;3.57;;
10090;SDS011;5084;51.386;6.778;2023-03-20T15:43:39;6.70;;;3.37;;
10090;SDS011;5084;51.386;6.778;2023-03-20T15:45:33;6.53;;;3.87;;
10090;SDS011;5084;51.386;6.778;2023-03-20T15:48:06;8.63;;;3.77;;
10090;SDS011;5084;51.386;6.778;2023-03-20T15:50:33;9.20;;;3.87;;
10090;SDS011;5084;51.386;6.778;2023-03-20T15:53:01;3.70;;;2.97;;
10090;SDS011;5084;51.386;6.778;2023-03-20T15:55:27;3.80;;;3.03;;
10090;SDS011;5084;51.386;6.778;2023-03-20T15:57:57;3.67;;;3.33;;
10090;SDS011;5084;51.386;6.778;2023-03-20T16:02:58;6.40;;;3.83;;
10090;SDS011;5084;51.386;6.778;2023-03-20T16:05:25;6.63;;;3.73;;
10090;SDS011;5084;51.386;6.778;2023-03-20T16:07:51;5.33;;;3.57;;
10090;SDS011;5084;51.386;6.778;2023-03-20T16:10:19;5.00;;;3.50;;
10090;SDS011;5084;51.386;6.778;2023-03-20T16:12:48;5.63;;;4.37;;
10090;SDS011;5084;51.386;6.778;2023-03-20T16:15:15;7.80;;;4.20;;
10090;SDS011;5084;51.386;6.778;2023-03-20T16:17:41;6.93;;;3.70;;
10090;SDS011;5084;51.386;6.778;2023-03-20T16:20:16;4.57;;;3.33;;
10090;SDS011;5084;51.386;6.778;2023-03-20T16:22:43;6.63;;;3.30;;
10090;SDS011;5084;51.386;6.778;2023-03-20T16:25:13;5.57;;;3.67;;
10090;SDS011;5084;51.386;6.778;2023-03-20T16:27:40;6.23;;;3.50;;
10090;SDS011;5084;51.386;6.778;2023-03-20T16:30:08;8.90;;;3.33;;
10090;SDS011;5084;51.386;6.778;2023-03-20T16:32:38;5.60;;;3.73;;
10090;SDS011;5084;51.386;6.778;2023-03-20T16:35:07;6.97;;;3.77;;
10090;SDS011;5084;51.386;6.778;2023-03-20T16:37:37;4.70;;;3.23;;
10090;SDS011;5084;51.386;6.778;2023-03-20T16:42:39;6.00;;;2.90;;
10090;SDS011;5084;51.386;6.778;2023-03-20T16:45:05;6.43;;;3.77;;
10090;SDS011;5084;51.386;6.778;2023-03-20T16:47:39;6.60;;;3.07;;
10090;SDS011;5084;51.386;6.778;2023-03-20T16:50:19;5.50;;;3.20;;
10090;SDS011;5084;51.386;6.778;2023-03-20T16:52:47;7.17;;;3.13;;
10090;SDS011;5084;51.386;6.778;2023-03-20T16:55:19;5.33;;;3.33;;
10090;SDS011;5084;51.386;6.778;2023-03-20T16:57:47;4.13;;;3.43;;
10090;SDS011;5084;51.386;6.778;2023-03-20T17:00:25;6.23;;;3.23;;
10090;SDS011;5084;51.386;6.778;2023-03-20T17:02:57;12.37;;;4.30;;
10090;SDS011;5084;51.386;6.778;2023-03-20T17:05:23;12.07;;;3.83;;
10090;SDS011;5084;51.386;6.778;2023-03-20T17:08:02;6.07;;;4.20;;
10090;SDS011;5084;51.386;6.778;2023-03-20T17:10:30;12.07;;;3.97;;
10090;SDS011;5084;51.386;6.778;2023-03-20T17:12:56;5.77;;;3.70;;
10090;SDS011;5084;51.386;6.778;2023-03-20T17:15:23;7.03;;;3.23;;
10090;SDS011;5084;51.386;6.778;2023-03-20T17:17:49;9.47;;;4.23;;
10090;SDS011;5084;51.386;6.778;2023-03-20T17:20:22;9.13;;;4.63;;
10090;SDS011;5084;51.386;6.778;2023-03-20T17:22:49;6.37;;;3.43;;
10090;SDS011;5084;51.386;6.778;2023-03-20T17:25:15;6.83;;;4.10;;
10090;SDS011;5084;51.386;6.778;2023-03-20T17:27:41;7.17;;;3.40;;
10090;SDS011;5084;51.386;6.778;2023-03-20T17:30:13;6.20;;;2.90;;
10090;SDS011;5084;51.386;6.778;2023-03-20T17:32:40;5.37;;;3.03;;
10090;SDS011;5084;51.386;6.778;2023-03-20T17:35:06;7.33;;;3.07;;
10090;SDS011;5084;51.386;6.778;2023-03-20T17:37:32;5.87;;;3.20;;
10090;SDS011;5084;51.386;6.778;2023-03-20T17:39:58;7.47;;;2.80;;